Schneifelwetter: Wetterstation Hallschlag, 537 m . NN
Wetterdaten: Dienstag, 01.11.2011
Datum Zeit Temp. A. Feuchte A. Luftdruck Regen Wind Richtung Richtung Sonnenschein Helligkeit T Regen Taupunkt Windchill
01.11.2011 00:09 5,2 C 97 % 1014 hPa 0,0 l/m 0,0 km/h (0 Bft) S-SO 155 0 min 0 lux 0 min 4,8 C 5,2 C
01.11.2011 00:24 5,2 C 97 % 1014 hPa 0,0 l/m 0,0 km/h (0 Bft) S 190 0 min 0 lux 0 min 4,8 C 5,2 C
01.11.2011 00:39 5,6 C 98 % 1014 hPa 0,0 l/m 8,0 km/h (2 Bft) S 170 0 min 0 lux 0 min 5,3 C 4,2 C
01.11.2011 00:54 6,9 C 98 % 1014 hPa 0,0 l/m 11,1 km/h (2 Bft) S22.5 175 0 min 0 lux 0 min 6,6 C 3,5 C
01.11.2011 01:09 7,8 C 98 % 1014 hPa 0,0 l/m 13,0 km/h (3 Bft) S45 175 0 min 0 lux 0 min 7,5 C 3,4 C
01.11.2011 01:24 8,1 C 98 % 1014 hPa 0,0 l/m 17,8 km/h (3 Bft) S22.5 180 0 min 0 lux 0 min 7,8 C 1,6 C
01.11.2011 01:39 8,3 C 98 % 1014 hPa 0,0 l/m 15,6 km/h (3 Bft) S45 170 0 min 0 lux 0 min 8,0 C 2,8 C
01.11.2011 01:54 8,4 C 98 % 1014 hPa 0,0 l/m 19,6 km/h (3 Bft) S45 170 0 min 0 lux 0 min 8,1 C 1,4 C
01.11.2011 02:09 8,3 C 98 % 1014 hPa 0,0 l/m 12,8 km/h (3 Bft) S-SW22.5 200 0 min 0 lux 0 min 8,0 C 4,1 C
01.11.2011 02:24 8,0 C 98 % 1014 hPa 0,0 l/m 11,2 km/h (2 Bft) S-SW67.5 200 0 min 0 lux 0 min 7,7 C 4,7 C
01.11.2011 02:39 8,2 C 98 % 1014 hPa 0,0 l/m 18,3 km/h (3 Bft) S22.5 190 0 min 0 lux 0 min 7,9 C 1,6 C
01.11.2011 02:54 8,4 C 98 % 1013 hPa 0,0 l/m 12,5 km/h (3 Bft) S-SW22.5 200 0 min 0 lux 0 min 8,1 C 4,4 C
01.11.2011 03:09 8,6 C 98 % 1013 hPa 0,0 l/m 13,4 km/h (3 Bft) S-SW22.5 205 0 min 0 lux 0 min 8,3 C 4,2 C
01.11.2011 03:24 8,7 C 98 % 1013 hPa 0,0 l/m 11,8 km/h (2 Bft) S-SW45 210 0 min 0 lux 0 min 8,4 C 5,1 C
01.11.2011 03:39 8,8 C 98 % 1013 hPa 0,0 l/m 12,6 km/h (3 Bft) S-SW22.5 205 0 min 0 lux 0 min 8,5 C 4,8 C
01.11.2011 03:54 8,8 C 98 % 1013 hPa 0,0 l/m 11,0 km/h (2 Bft) S-SW45 195 0 min 0 lux 0 min 8,5 C 5,7 C
01.11.2011 04:09 9,0 C 98 % 1013 hPa 0,0 l/m 11,0 km/h (2 Bft) S45 185 0 min 0 lux 0 min 8,7 C 5,9 C
01.11.2011 04:24 9,1 C 98 % 1013 hPa 0,0 l/m 12,6 km/h (3 Bft) S22.5 170 0 min 0 lux 0 min 8,8 C 5,2 C
01.11.2011 04:39 9,0 C 98 % 1013 hPa 0,0 l/m 11,6 km/h (2 Bft) S22.5 185 0 min 0 lux 0 min 8,7 C 5,6 C
01.11.2011 04:54 9,0 C 98 % 1013 hPa 0,0 l/m 12,2 km/h (2 Bft) S22.5 180 0 min 0 lux 0 min 8,7 C 5,3 C
01.11.2011 05:09 9,0 C 98 % 1013 hPa 0,0 l/m 10,5 km/h (2 Bft) S22.5 185 0 min 0 lux 0 min 8,7 C 6,2 C
01.11.2011 05:24 9,0 C 98 % 1013 hPa 0,0 l/m 17,8 km/h (3 Bft) S45 190 0 min 0 lux 0 min 8,7 C 2,8 C
01.11.2011 05:39 9,0 C 98 % 1013 hPa 0,0 l/m 14,3 km/h (3 Bft) S45 185 0 min 0 lux 0 min 8,7 C 4,2 C
01.11.2011 05:54 9,0 C 98 % 1013 hPa 0,0 l/m 14,6 km/h (3 Bft) SW45 230 0 min 0 lux 0 min 8,7 C 4,1 C
01.11.2011 06:09 8,9 C 98 % 1013 hPa 0,0 l/m 13,8 km/h (3 Bft) SW22.5 230 0 min 0 lux 0 min 8,6 C 4,3 C
01.11.2011 06:24 8,8 C 98 % 1013 hPa 0,0 l/m 12,1 km/h (2 Bft) S-SW22.5 210 0 min 0 lux 0 min 8,5 C 5,1 C
01.11.2011 06:39 8,8 C 98 % 1012 hPa 0,0 l/m 13,4 km/h (3 Bft) SW45 215 0 min 0 lux 0 min 8,5 C 4,4 C
01.11.2011 06:54 8,7 C 98 % 1012 hPa 0,0 l/m 12,9 km/h (3 Bft) SW45 230 0 min 0 lux 0 min 8,4 C 4,6 C
01.11.2011 07:09 8,6 C 98 % 1013 hPa 0,0 l/m 7,2 km/h (2 Bft) SW 215 0 min 94 lux 0 min 8,3 C 8,0 C
01.11.2011 07:24 8,5 C 98 % 1013 hPa 0,0 l/m 8,3 km/h (2 Bft) SW22.5 220 0 min 549 lux 0 min 8,2 C 7,1 C
01.11.2011 07:39 8,5 C 98 % 1013 hPa 0,0 l/m 12,0 km/h (2 Bft) SW22.5 215 0 min 986 lux 0 min 8,2 C 4,8 C
01.11.2011 07:54 8,4 C 98 % 1013 hPa 0,0 l/m 13,6 km/h (3 Bft) SW22.5 215 0 min 2,19 klux 0 min 8,1 C 3,9 C
01.11.2011 08:09 8,4 C 98 % 1013 hPa 0,0 l/m 8,7 km/h (2 Bft) SW22.5 215 0 min 2,78 klux 0 min 8,1 C 6,7 C
01.11.2011 08:24 8,5 C 98 % 1013 hPa 0,0 l/m 0,1 km/h (0 Bft) S-SW 205 0 min 4,31 klux 0 min 8,2 C 8,5 C
01.11.2011 08:39 8,6 C 98 % 1013 hPa 0,0 l/m 7,8 km/h (2 Bft) S-SW22.5 210 0 min 4,41 klux 0 min 8,3 C 7,5 C
01.11.2011 08:54 8,8 C 98 % 1014 hPa 0,0 l/m 7,9 km/h (2 Bft) W-SW22.5 250 0 min 5,75 klux 0 min 8,5 C 7,7 C
01.11.2011 09:09 9,0 C 98 % 1014 hPa 0,0 l/m 8,1 km/h (2 Bft) S22.5 170 0 min 7,55 klux 0 min 8,7 C 7,7 C
01.11.2011 09:24 9,2 C 97 % 1013 hPa 0,0 l/m 9,4 km/h (2 Bft) S22.5 185 0 min 13,1 klux 0 min 8,7 C 7,1 C
01.11.2011 09:39 9,5 C 97 % 1014 hPa 0,0 l/m 15,1 km/h (3 Bft) S45 180 0 min 18,8 klux 0 min 9,0 C 4,5 C
01.11.2011 09:54 9,5 C 96 % 1013 hPa 0,0 l/m 15,0 km/h (3 Bft) W-SW45 240 0 min 14,1 klux 0 min 8,9 C 4,5 C
01.11.2011 10:10 9,8 C 96 % 1013 hPa 0,0 l/m 14,0 km/h (3 Bft) S-SW22.5 195 0 min 15,3 klux 0 min 9,2 C 5,3 C
01.11.2011 10:25 10,0 C 96 % 1013 hPa 0,0 l/m 11,6 km/h (2 Bft) S-SW67.5 205 0 min 17,7 klux 0 min 9,4 C 6,7 C
01.11.2011 10:45 10,2 C 95 % 1013 hPa 0,0 l/m 12,8 km/h (3 Bft) SW67.5 215 0 min 22,4 klux 0 min 9,4 C 6,4 C
01.11.2011 11:00 10,6 C 95 % 1013 hPa 0,0 l/m 12,6 km/h (3 Bft) S45 175 15 min 41,3 klux 0 min 9,8 C 6,9 C
01.11.2011 11:15 11,1 C 93 % 1013 hPa 0,0 l/m 17,3 km/h (3 Bft) S45 190 0 min 32,9 klux 0 min 10,0 C 5,6 C
01.11.2011 11:30 11,2 C 92 % 1013 hPa 0,0 l/m 17,2 km/h (3 Bft) SW67.5 220 0 min 26,8 klux 0 min 9,9 C 5,8 C
01.11.2011 11:45 11,3 C 92 % 1013 hPa 0,0 l/m 14,2 km/h (3 Bft) S22.5 170 0 min 33,1 klux 0 min 10,0 C 7,0 C
01.11.2011 12:00 11,4 C 91 % 1013 hPa 0,0 l/m 22,5 km/h (4 Bft) S-SO22.5 165 15 min 45,2 klux 0 min 10,0 C 4,4 C
01.11.2011 12:16 11,6 C 90 % 1013 hPa 0,0 l/m 19,3 km/h (3 Bft) S-SO22.5 165 0 min 33,3 klux 0 min 10,0 C 5,6 C
01.11.2011 12:30 11,7 C 90 % 1013 hPa 0,0 l/m 15,4 km/h (3 Bft) S22.5 170 14 min 48,1 klux 0 min 10,1 C 7,0 C
01.11.2011 12:45 11,6 C 90 % 1013 hPa 0,0 l/m 17,6 km/h (3 Bft) S22.5 170 15 min 58,5 klux 0 min 10,0 C 6,1 C
01.11.2011 13:00 11,8 C 89 % 1013 hPa 0,0 l/m 15,8 km/h (3 Bft) S45 190 15 min 54,0 klux 0 min 10,0 C 7,0 C
01.11.2011 13:15 11,6 C 89 % 1013 hPa 0,0 l/m 15,0 km/h (3 Bft) S22.5 180 0 min 23,8 klux 0 min 9,8 C 7,1 C
01.11.2011 13:30 11,2 C 89 % 1013 hPa 0,0 l/m 15,6 km/h (3 Bft) SW45 215 0 min 17,9 klux 0 min 9,5 C 6,4 C
01.11.2011 13:46 11,0 C 90 % 1013 hPa 0,0 l/m 14,0 km/h (3 Bft) S-SO22.5 165 0 min 14,1 klux 0 min 9,4 C 6,8 C
01.11.2011 14:00 10,8 C 91 % 1013 hPa 0,0 l/m 15,1 km/h (3 Bft) SW45 215 0 min 17,7 klux 0 min 9,4 C 6,1 C
01.11.2011 14:15 11,0 C 91 % 1013 hPa 0,0 l/m 13,8 km/h (3 Bft) S22.5 170 0 min 21,0 klux 0 min 9,6 C 6,8 C
01.11.2011 14:30 11,2 C 91 % 1013 hPa 0,0 l/m 19,0 km/h (3 Bft) S45 185 0 min 20,8 klux 0 min 9,8 C 5,2 C
01.11.2011 14:45 11,1 C 91 % 1013 hPa 0,0 l/m 16,7 km/h (3 Bft) S45 180 0 min 15,0 klux 0 min 9,7 C 5,8 C
01.11.2011 15:00 11,1 C 91 % 1013 hPa 0,0 l/m 14,6 km/h (3 Bft) S45 175 0 min 11,8 klux 0 min 9,7 C 6,6 C
01.11.2011 15:16 11,2 C 91 % 1013 hPa 0,0 l/m 15,8 km/h (3 Bft) S22.5 180 0 min 25,9 klux 0 min 9,8 C 6,3 C
01.11.2011 15:30 11,0 C 91 % 1013 hPa 0,0 l/m 15,8 km/h (3 Bft) S22.5 170 0 min 14,3 klux 0 min 9,6 C 6,0 C
01.11.2011 15:45 10,8 C 92 % 1013 hPa 0,0 l/m 15,3 km/h (3 Bft) SW45 225 0 min 8,61 klux 0 min 9,6 C 6,0 C
01.11.2011 16:00 10,4 C 92 % 1013 hPa 0,0 l/m 21,8 km/h (4 Bft) S-SW22.5 210 0 min 9,6 klux 0 min 9,2 C 3,3 C
01.11.2011 16:15 10,0 C 92 % 1013 hPa 0,0 l/m 12,0 km/h (2 Bft) S22.5 185 0 min 4,56 klux 0 min 8,8 C 6,5 C
01.11.2011 16:30 9,7 C 93 % 1013 hPa 0,0 l/m 21,2 km/h (4 Bft) S-SW67.5 210 0 min 2,25 klux 0 min 8,6 C 2,5 C
01.11.2011 16:46 9,6 C 94 % 1013 hPa 0,0 l/m 17,2 km/h (3 Bft) S22.5 175 0 min 2,01 klux 0 min 8,7 C 3,8 C
01.11.2011 16:45 9,6 C 94 % 1013 hPa 0,0 l/m 17,2 km/h (3 Bft) S22.5 175 0 min 2,01 klux 0 min 8,7 C 3,8 C
01.11.2011 17:00 9,5 C 94 % 1013 hPa 0,0 l/m 14,8 km/h (3 Bft) S-SW45 195 0 min 961 lux 0 min 8,6 C 4,6 C
01.11.2011 17:15 9,5 C 95 % 1013 hPa 0,0 l/m 10,1 km/h (2 Bft) S22.5 175 0 min 226 lux 0 min 8,7 C 7,0 C
01.11.2011 17:30 9,6 C 95 % 1013 hPa 0,0 l/m 13,8 km/h (3 Bft) S-SO22.5 160 0 min 59 lux 0 min 8,8 C 5,2 C
01.11.2011 17:46 9,6 C 95 % 1013 hPa 0,0 l/m 13,9 km/h (3 Bft) S-SO22.5 160 0 min 15 lux 0 min 8,8 C 5,1 C
01.11.2011 18:00 9,5 C 95 % 1013 hPa 0,0 l/m 10,6 km/h (2 Bft) S22.5 185 0 min 0 lux 0 min 8,7 C 6,7 C
01.11.2011 18:15 9,3 C 95 % 1013 hPa 0,0 l/m 12,4 km/h (3 Bft) S22.5 180 0 min 0 lux 0 min 8,5 C 5,5 C
01.11.2011 18:30 9,2 C 95 % 1013 hPa 0,0 l/m 10,5 km/h (2 Bft) S22.5 185 0 min 0 lux 0 min 8,4 C 6,4 C
01.11.2011 18:45 9,3 C 96 % 1013 hPa 0,0 l/m 10,3 km/h (2 Bft) SW22.5 220 0 min 0 lux 0 min 8,7 C 6,6 C
01.11.2011 19:00 9,4 C 96 % 1013 hPa 0,0 l/m 8,1 km/h (2 Bft) S-SO 165 0 min 0 lux 0 min 8,8 C 8,2 C
01.11.2011 19:16 9,4 C 96 % 1013 hPa 0,0 l/m 8,4 km/h (2 Bft) S-SO22.5 160 0 min 0 lux 0 min 8,8 C 7,9 C
01.11.2011 19:30 9,4 C 96 % 1013 hPa 0,0 l/m 8,0 km/h (2 Bft) S45 180 0 min 0 lux 0 min 8,8 C 8,2 C
01.11.2011 19:45 9,5 C 97 % 1013 hPa 0,0 l/m 9,8 km/h (2 Bft) S22.5 170 0 min 0 lux 0 min 9,0 C 7,2 C
01.11.2011 20:00 9,6 C 97 % 1013 hPa 0,0 l/m 11,8 km/h (2 Bft) S-SO22.5 155 0 min 0 lux 0 min 9,1 C 6,2 C
01.11.2011 20:15 10,0 C 97 % 1013 hPa 0,0 l/m 11,1 km/h (2 Bft) S22.5 170 0 min 0 lux 0 min 9,5 C 7,0 C
01.11.2011 20:30 10,1 C 97 % 1013 hPa 0,0 l/m 9,8 km/h (2 Bft) S-SO22.5 165 0 min 0 lux 0 min 9,6 C 7,8 C
01.11.2011 20:46 10,2 C 97 % 1013 hPa 0,0 l/m 13,8 km/h (3 Bft) S22.5 170 0 min 0 lux 0 min 9,7 C 5,9 C
01.11.2011 21:00 10,2 C 97 % 1013 hPa 0,0 l/m 9,9 km/h (2 Bft) S45 170 0 min 0 lux 0 min 9,7 C 7,9 C
01.11.2011 21:15 10,4 C 97 % 1013 hPa 0,0 l/m 13,3 km/h (3 Bft) S22.5 170 0 min 0 lux 0 min 9,9 C 6,4 C
01.11.2011 21:30 10,3 C 97 % 1013 hPa 0,0 l/m 14,2 km/h (3 Bft) S22.5 185 0 min 0 lux 0 min 9,8 C 5,8 C
01.11.2011 21:45 10,4 C 97 % 1013 hPa 0,0 l/m 16,8 km/h (3 Bft) S22.5 190 0 min 0 lux 0 min 9,9 C 4,9 C
01.11.2011 22:00 10,5 C 97 % 1013 hPa 0,0 l/m 17,7 km/h (3 Bft) S45 190 0 min 0 lux 0 min 10,0 C 4,7 C
01.11.2011 22:16 10,4 C 96 % 1013 hPa 0,0 l/m 15,8 km/h (3 Bft) S45 185 0 min 0 lux 0 min 9,8 C 5,3 C
01.11.2011 22:30 10,4 C 97 % 1013 hPa 0,0 l/m 21,3 km/h (4 Bft) S-SW45 205 0 min 0 lux 0 min 9,9 C 3,4 C
01.11.2011 22:45 10,4 C 96 % 1013 hPa 0,0 l/m 20,3 km/h (4 Bft) SW45 215 0 min 0 lux 0 min 9,8 C 3,7 C
01.11.2011 23:00 10,4 C 96 % 1013 hPa 0,0 l/m 23,9 km/h (4 Bft) SW45 215 0 min 0 lux 0 min 9,8 C 2,7 C
01.11.2011 23:15 10,4 C 96 % 1013 hPa 0,0 l/m 21,5 km/h (4 Bft) S-SW45 210 0 min 0 lux 0 min 9,8 C 3,3 C
01.11.2011 23:30 10,4 C 95 % 1013 hPa 0,0 l/m 25,4 km/h (4 Bft) SW45 220 0 min 0 lux 0 min 9,6 C 2,3 C
01.11.2011 23:39 10,3 C 95 % 1013 hPa 0,0 l/m 22,5 km/h (4 Bft) SW45 230 0 min 0 lux 0 min 9,5 C 2,9 C
01.11.2011 23:54 10,3 C 95 % 1014 hPa 0,0 l/m 23,6 km/h (4 Bft) SW45 230 0 min 0 lux 0 min 9,5 C 2,6 C
_ Min-Zeit 00:09 13:00 06:39 - 00:09 - - - - - 00:09 01:54
Minimum _ 5,2 C 89 % 1012 hPa - 0,0 km/h (0 Bft) - - - - - 4,8 C 1,4 C
_ Max-Zeit 13:00 00:39 00:09 00:09 23:30 - - 11:00 12:45 00:09 12:30 08:24
Maximum _ 11,8 C 98 % 1014 hPa 0,0 l/m 25,4 km/h
SW (4 Bft)
- - 15 min 58,5 klux 0 min 10,1 C 8,5 C
Durchschnitt _ 9,6 C 96 % 1013 hPa #0,0 l/m 13,7 km/h (3 Bft) S - #1:14 h 7,55 klux #0 min. 8,9 C 5,4 C